Archimede — IXZR — position and weather

sailwx.info

Track history (hours):
 
Tides and Currents Weather Stations Pressure Air Temp Water Temp Dewpoint Dewpoint Depression Visibility Wind Speed Wind Dir Waves Ship Positions

Archimede

Last reported at 2018-Apr-19 13:04 UTC. Time now 2018-Apr-25 08:26 UTC.
Position N 38°12' E 015°34'.

; draft 3 m.

Type: Ship. MMSI: 247054700.

Date/timePositionNaut miles runAvg speedWind from/ knotsBaromVisibWave heightAir tempDewpointWater temp
2018-Apr-19 13:04N 38°12' E 015°34'0 0.1
2018-Apr-19 12:59N 38°12' E 015°34'0 0.0
2018-Apr-19 12:29N 38°12' E 015°34'  
2018-Apr-13 07:02N 38°12' E 015°34'0 0.0
2018-Apr-13 06:59N 38°12' E 015°34'0 0.0
2018-Apr-11 12:17N 38°12' E 015°34'0 0.6
2018-Apr-11 11:58N 38°13' E 015°34'2 4.1
2018-Apr-11 11:31N 38°13' E 015°36'1 2.0
2018-Apr-11 11:01N 38°13' E 015°37'2 3.6
2018-Apr-11 10:22N 38°13' E 015°34'3 8.9
2018-Apr-11 10:01N 38°13' E 015°38'2 4.2
2018-Apr-11 09:31N 38°12' E 015°36'1 2.3
2018-Apr-11 09:01N 38°13' E 015°34'3 6.2
2018-Apr-11 08:31N 38°13' E 015°38'3 3.7
2018-Apr-11 07:37N 38°13' E 015°34'213.6
2018-Apr-11 07:29N 38°14' E 015°36'1 2.2
2018-Apr-11 06:59N 38°13' E 015°37'3 4.0
2018-Apr-11 06:22N 38°13' E 015°34'3 9.4
2018-Apr-11 06:01N 38°13' E 015°38'3 4.8
2018-Apr-11 05:29N 38°13' E 015°35'1 1.5
2018-Apr-11 05:00N 38°13' E 015°34'3 6.5
2018-Apr-11 04:30N 38°13' E 015°38'3 3.0
2018-Apr-11 03:38N 38°13' E 015°35'212.0
2018-Apr-11 03:29N 38°14' E 015°37'1 1.7
2018-Apr-11 03:00N 38°13' E 015°37'2 3.2
2018-Apr-11 02:17N 38°13' E 015°34'310.4
2018-Apr-11 02:00N 38°13' E 015°38'2 3.7
2018-Apr-11 01:30N 38°12' E 015°36'1 2.4
2018-Apr-11 00:57N 38°13' E 015°34'3 6.5
2018-Apr-11 00:30N 38°13' E 015°38'3 3.7
2018-Apr-10 23:39N 38°13' E 015°34'211.1
2018-Apr-10 23:27N 38°14' E 015°37'1 1.8
2018-Apr-10 22:59N 38°13' E 015°38'3 3.7
2018-Apr-10 22:16N 38°13' E 015°34'311.4
2018-Apr-10 22:00N 38°13' E 015°38'2 3.8
2018-Apr-10 21:30N 38°12' E 015°36'1 2.1
2018-Apr-10 20:56N 38°13' E 015°34'3 6.9
2018-Apr-10 20:30N 38°13' E 015°38'3 3.6
2018-Apr-10 19:40N 38°13' E 015°34'213.2
2018-Apr-10 19:30N 38°13' E 015°37'1 1.1
2018-Apr-10 19:00N 38°13' E 015°37'2 3.1
2018-Apr-10 18:16N 38°13' E 015°34'311.1
2018-Apr-10 18:00N 38°13' E 015°38'3 4.8
2018-Apr-10 17:29N 38°13' E 015°35'1 1.3
2018-Apr-10 16:58N 38°13' E 015°34'3 6.6
2018-Apr-10 16:30N 38°13' E 015°38'3 3.5
2018-Apr-10 15:39N 38°13' E 015°34'211.8
2018-Apr-10 15:30N 38°13' E 015°36'1 1.8
2018-Apr-10 15:00N 38°13' E 015°37'3 4.3
2018-Apr-10 14:22N 38°13' E 015°34'3 9.0
2018-Apr-10 14:00N 38°13' E 015°38'2 3.9
2018-Apr-10 13:30N 38°12' E 015°36'1 1.9
2018-Apr-10 12:58N 38°13' E 015°35'3 5.8
2018-Apr-10 12:30N 38°13' E 015°38'3 3.7
2018-Apr-10 11:39N 38°13' E 015°34'212.4
2018-Apr-10 11:30N 38°13' E 015°36'1 1.6
2018-Apr-10 11:00N 38°13' E 015°37'3 0.8
2018-Apr-10 07:42N 38°13' E 015°34'210.2
2018-Apr-10 07:30N 38°13' E 015°36'1 2.6
2018-Apr-10 07:00N 38°13' E 015°37'3 3.5
2018-Apr-10 06:16N 38°13' E 015°34'311.4
2018-Apr-10 06:00N 38°13' E 015°38'2 4.0
2018-Apr-10 05:30N 38°12' E 015°36'1 2.7
2018-Apr-10 05:00N 38°13' E 015°34'3 6.8
2018-Apr-10 04:30N 38°13' E 015°38'3 3.6
2018-Apr-10 03:37N 38°13' E 015°34'212.3
2018-Apr-10 03:29N 38°13' E 015°36'1 2.4
2018-Apr-10 03:00N 38°13' E 015°37'2 3.2
2018-Apr-10 02:16N 38°13' E 015°35'310.4
2018-Apr-10 02:00N 38°13' E 015°38'2 3.6
2018-Apr-10 01:30N 38°12' E 015°36'1 2.4
2018-Apr-10 00:56N 38°13' E 015°34'3 6.5
2018-Apr-10 00:30N 38°13' E 015°38'3 3.3
2018-Apr-09 23:38N 38°13' E 015°34'211.6
2018-Apr-09 23:29N 38°14' E 015°36'1 2.1
2018-Apr-09 23:00N 38°13' E 015°37'3 3.9
2018-Apr-09 22:18N 38°13' E 015°34'311.0
2018-Apr-09 22:00N 38°13' E 015°38'2 4.3
2018-Apr-09 21:29N 38°12' E 015°35'1 1.7
2018-Apr-09 20:57N 38°13' E 015°34'3 6.8
2018-Apr-09 20:30N 38°13' E 015°38'3 2.9
2018-Apr-09 19:36N 38°13' E 015°35'111.6
2018-Apr-09 19:30N 38°13' E 015°36'1 1.6
2018-Apr-09 19:00N 38°13' E 015°37'2 3.5
2018-Apr-09 18:20N 38°13' E 015°34'3 9.4
2018-Apr-09 18:00N 38°13' E 015°38'2 4.8
2018-Apr-09 17:30N 38°12' E 015°35'1 1.2
2018-Apr-09 16:59N 38°13' E 015°35'3 5.3
2018-Apr-09 16:30N 38°13' E 015°38'3 4.3
2018-Apr-09 15:48N 38°13' E 015°34'3 9.1
2018-Apr-09 15:28N 38°13' E 015°38'2 5.2
2018-Apr-09 15:00N 38°12' E 015°35'1 1.2
2018-Apr-09 14:27N 38°13' E 015°36'2 4.3
2018-Apr-09 14:00N 38°13' E 015°38'3 3.3
2018-Apr-09 13:06N 38°13' E 015°34'  
Track history (hours):
 
Tides and Currents Weather Stations Pressure Air Temp Water Temp Dewpoint Dewpoint Depression Visibility Wind Speed Wind Dir Waves Ship Positions

Archimede

Last reported at 2018-Apr-19 13:04 UTC. Time now 2018-Apr-25 08:26 UTC.
Position N 38°12' E 015°34'.

; draft 3 m.

Type: Ship. MMSI: 247054700.

Date/timePositionNaut miles runAvg speedWind from/ knotsBaromVisibWave heightAir tempDewpointWater temp
2018-Apr-19 13:04N 38°12' E 015°34'0 0.1
2018-Apr-19 12:59N 38°12' E 015°34'0 0.0
2018-Apr-19 12:29N 38°12' E 015°34'  
2018-Apr-13 07:02N 38°12' E 015°34'0 0.0
2018-Apr-13 06:59N 38°12' E 015°34'0 0.0
2018-Apr-11 12:17N 38°12' E 015°34'0 0.6
2018-Apr-11 11:58N 38°13' E 015°34'2 4.1
2018-Apr-11 11:31N 38°13' E 015°36'1 2.0
2018-Apr-11 11:01N 38°13' E 015°37'2 3.6
2018-Apr-11 10:22N 38°13' E 015°34'3 8.9
2018-Apr-11 10:01N 38°13' E 015°38'2 4.2
2018-Apr-11 09:31N 38°12' E 015°36'1 2.3
2018-Apr-11 09:01N 38°13' E 015°34'3 6.2
2018-Apr-11 08:31N 38°13' E 015°38'3 3.7
2018-Apr-11 07:37N 38°13' E 015°34'213.6
2018-Apr-11 07:29N 38°14' E 015°36'1 2.2
2018-Apr-11 06:59N 38°13' E 015°37'3 4.0
2018-Apr-11 06:22N 38°13' E 015°34'3 9.4
2018-Apr-11 06:01N 38°13' E 015°38'3 4.8
2018-Apr-11 05:29N 38°13' E 015°35'1 1.5
2018-Apr-11 05:00N 38°13' E 015°34'3 6.5
2018-Apr-11 04:30N 38°13' E 015°38'3 3.0
2018-Apr-11 03:38N 38°13' E 015°35'212.0
2018-Apr-11 03:29N 38°14' E 015°37'1 1.7
2018-Apr-11 03:00N 38°13' E 015°37'2 3.2
2018-Apr-11 02:17N 38°13' E 015°34'310.4
2018-Apr-11 02:00N 38°13' E 015°38'2 3.7
2018-Apr-11 01:30N 38°12' E 015°36'1 2.4
2018-Apr-11 00:57N 38°13' E 015°34'3 6.5
2018-Apr-11 00:30N 38°13' E 015°38'3 3.7
2018-Apr-10 23:39N 38°13' E 015°34'211.1
2018-Apr-10 23:27N 38°14' E 015°37'1 1.8
2018-Apr-10 22:59N 38°13' E 015°38'3 3.7
2018-Apr-10 22:16N 38°13' E 015°34'311.4
2018-Apr-10 22:00N 38°13' E 015°38'2 3.8
2018-Apr-10 21:30N 38°12' E 015°36'1 2.1
2018-Apr-10 20:56N 38°13' E 015°34'3 6.9
2018-Apr-10 20:30N 38°13' E 015°38'3 3.6
2018-Apr-10 19:40N 38°13' E 015°34'213.2
2018-Apr-10 19:30N 38°13' E 015°37'1 1.1
2018-Apr-10 19:00N 38°13' E 015°37'2 3.1
2018-Apr-10 18:16N 38°13' E 015°34'311.1
2018-Apr-10 18:00N 38°13' E 015°38'3 4.8
2018-Apr-10 17:29N 38°13' E 015°35'1 1.3
2018-Apr-10 16:58N 38°13' E 015°34'3 6.6
2018-Apr-10 16:30N 38°13' E 015°38'3 3.5
2018-Apr-10 15:39N 38°13' E 015°34'211.8
2018-Apr-10 15:30N 38°13' E 015°36'1 1.8
2018-Apr-10 15:00N 38°13' E 015°37'3 4.3
2018-Apr-10 14:22N 38°13' E 015°34'3 9.0
2018-Apr-10 14:00N 38°13' E 015°38'2 3.9
2018-Apr-10 13:30N 38°12' E 015°36'1 1.9
2018-Apr-10 12:58N 38°13' E 015°35'3 5.8
2018-Apr-10 12:30N 38°13' E 015°38'3 3.7
2018-Apr-10 11:39N 38°13' E 015°34'212.4
2018-Apr-10 11:30N 38°13' E 015°36'1 1.6
2018-Apr-10 11:00N 38°13' E 015°37'3 0.8
2018-Apr-10 07:42N 38°13' E 015°34'210.2
2018-Apr-10 07:30N 38°13' E 015°36'1 2.6
2018-Apr-10 07:00N 38°13' E 015°37'3 3.5
2018-Apr-10 06:16N 38°13' E 015°34'311.4
2018-Apr-10 06:00N 38°13' E 015°38'2 4.0
2018-Apr-10 05:30N 38°12' E 015°36'1 2.7
2018-Apr-10 05:00N 38°13' E 015°34'3 6.8
2018-Apr-10 04:30N 38°13' E 015°38'3 3.6
2018-Apr-10 03:37N 38°13' E 015°34'212.3
2018-Apr-10 03:29N 38°13' E 015°36'1 2.4
2018-Apr-10 03:00N 38°13' E 015°37'2 3.2
2018-Apr-10 02:16N 38°13' E 015°35'310.4
2018-Apr-10 02:00N 38°13' E 015°38'2 3.6
2018-Apr-10 01:30N 38°12' E 015°36'1 2.4
2018-Apr-10 00:56N 38°13' E 015°34'3 6.5
2018-Apr-10 00:30N 38°13' E 015°38'3 3.3
2018-Apr-09 23:38N 38°13' E 015°34'211.6
2018-Apr-09 23:29N 38°14' E 015°36'1 2.1
2018-Apr-09 23:00N 38°13' E 015°37'3 3.9
2018-Apr-09 22:18N 38°13' E 015°34'311.0
2018-Apr-09 22:00N 38°13' E 015°38'2 4.3
2018-Apr-09 21:29N 38°12' E 015°35'1 1.7
2018-Apr-09 20:57N 38°13' E 015°34'3 6.8
2018-Apr-09 20:30N 38°13' E 015°38'3 2.9
2018-Apr-09 19:36N 38°13' E 015°35'111.6
2018-Apr-09 19:30N 38°13' E 015°36'1 1.6
2018-Apr-09 19:00N 38°13' E 015°37'2 3.5
2018-Apr-09 18:20N 38°13' E 015°34'3 9.4
2018-Apr-09 18:00N 38°13' E 015°38'2 4.8
2018-Apr-09 17:30N 38°12' E 015°35'1 1.2
2018-Apr-09 16:59N 38°13' E 015°35'3 5.3
2018-Apr-09 16:30N 38°13' E 015°38'3 4.3
2018-Apr-09 15:48N 38°13' E 015°34'3 9.1
2018-Apr-09 15:28N 38°13' E 015°38'2 5.2
2018-Apr-09 15:00N 38°12' E 015°35'1 1.2
2018-Apr-09 14:27N 38°13' E 015°36'2 4.3
2018-Apr-09 14:00N 38°13' E 015°38'3 3.3
2018-Apr-09 13:06N 38°13' E 015°34'  

Dump ship's entire track history